Time;durP1;ratioP1;P1;durP2;ratioP2;P2;SDS_P1;SDS_P2;PMS_P1;PMS_P2;Temp;Humidity;BMP_temperature;BMP_pressure;BME280_temperature;BME280_humidity;BME280_pressure;Samples;Min_cycle;Max_cycle;Signal;HPM_P1;HPM_P2
2023/09/04 00:01:09;;;;;;;2.00;1.80;;;19.60;99.90;;;20.18;66.23;102322.81;4874187;28;122363;-75
2023/09/04 00:03:35;;;;;;;2.03;1.50;;;19.70;99.90;;;20.19;64.33;102319.19;4879337;28;97301;-75
2023/09/04 00:06:00;;;;;;;3.93;2.03;;;19.80;99.90;;;20.08;63.07;102337.59;4875230;28;97489;-74
2023/09/04 00:08:26;;;;;;;7.13;1.93;;;19.60;99.90;;;19.97;61.74;102323.88;4877696;28;97845;-75
2023/09/04 00:10:52;;;;;;;2.40;1.83;;;19.50;99.90;;;19.94;65.19;102327.53;4866292;28;100650;-74
2023/09/04 00:13:18;;;;;;;2.33;1.97;;;19.40;99.90;;;19.86;63.62;102322.56;4872545;28;97981;-75
2023/09/04 00:15:44;;;;;;;2.50;1.70;;;19.30;99.90;;;19.91;66.94;102317.84;4873546;28;97968;-75
2023/09/04 00:18:10;;;;;;;2.37;1.70;;;19.40;99.90;;;20.01;67.15;102325.44;4883134;28;97519;-74
2023/09/04 00:20:36;;;;;;;2.30;1.57;;;19.50;99.90;;;19.98;62.45;102314.88;4857348;28;109725;-75
2023/09/04 00:23:02;;;;;;;3.70;2.20;;;19.50;99.90;;;19.92;63.24;102311.53;4870001;28;97765;-74
2023/09/04 00:25:28;;;;;;;1.47;1.37;;;19.40;99.90;;;19.98;66.41;102312.22;4873197;28;97672;-75
2023/09/04 00:27:55;;;;;;;2.27;1.73;;;19.50;99.90;;;20.03;67.23;102307.47;4876579;28;97690;-74
2023/09/04 00:30:22;;;;;;;2.00;1.70;;;19.60;99.90;;;20.06;65.46;102312.69;4870654;28;100897;-73
2023/09/04 00:32:48;;;;;;;1.63;1.37;;;19.60;99.90;;;20.10;66.77;102308.91;4872207;28;97157;-73
2023/09/04 00:35:13;;;;;;;2.33;1.60;;;19.70;99.90;;;20.13;64.79;102308.78;4866872;28;97361;-74
2023/09/04 00:37:41;;;;;;;1.37;1.27;;;19.70;99.90;;;20.12;65.82;102312.41;4873233;28;97443;-74
2023/09/04 00:40:08;;;;;;;1.93;1.53;;;19.70;99.90;;;20.15;66.64;102306.88;4867834;28;97997;-73
2023/09/04 00:42:34;;;;;;;1.70;1.40;;;19.70;99.90;;;20.17;65.62;102310.34;4874722;28;97525;-73
2023/09/04 00:45:00;;;;;;;2.00;1.47;;;19.80;99.90;;;20.13;65.49;102308.78;4874148;28;98754;-73
2023/09/04 00:47:29;;;;;;;2.00;1.80;;;19.70;99.90;;;20.18;67.08;102318.31;4870046;28;97432;-74
2023/09/04 00:49:55;;;;;;;2.13;1.80;;;19.80;99.90;;;20.29;66.98;102308.88;4877754;28;108933;-74
2023/09/04 00:52:25;;;;;;;2.30;1.57;;;20.00;99.90;;;20.35;66.54;102312.09;4879978;28;97213;-73
2023/09/04 00:54:51;;;;;;;2.37;1.70;;;20.10;99.90;;;20.39;66.58;102313.66;4875854;28;97053;-74
2023/09/04 00:57:18;;;;;;;2.33;1.53;;;20.20;99.90;;;20.38;62.51;102311.94;4881553;28;97365;-74
2023/09/04 00:59:45;;;;;;;2.13;1.53;;;20.10;99.90;;;20.35;63.17;102304.06;4871740;28;97230;-74
2023/09/04 01:02:14;;;;;;;4.63;1.50;;;20.00;99.90;;;20.30;61.48;102300.75;4870400;28;97699;-74
2023/09/04 01:04:40;;;;;;;2.10;1.60;;;19.90;99.90;;;20.24;62.86;102294.81;4866392;28;100023;-74
2023/09/04 01:07:06;;;;;;;3.53;2.07;;;19.80;99.90;;;20.20;61.95;102288.75;4871647;28;97566;-73
2023/09/04 01:09:32;;;;;;;2.20;1.70;;;19.80;99.90;;;20.14;62.68;102294.44;4871581;28;113409;-74
2023/09/04 01:12:53;;;;;;;2.83;2.00;;;19.60;99.90;;;20.13;63.32;102298.06;4874404;28;105866;-74
2023/09/04 01:15:19;;;;;;;2.47;2.00;;;19.60;99.90;;;20.06;64.79;102291.25;4870371;28;97542;-74
2023/09/04 01:17:47;;;;;;;2.50;1.80;;;19.50;99.90;;;20.03;65.29;102286.06;4882634;28;97484;-73
2023/09/04 01:20:27;;;;;;;1.80;1.70;;;19.50;99.90;;;20.00;63.72;102275.50;4893279;28;97587;-74
2023/09/04 01:22:57;;;;;;;1.73;1.37;;;19.40;99.90;;;19.96;66.01;102284.59;4871589;28;97660;-74
2023/09/04 01:25:30;;;;;;;2.40;1.60;;;19.40;99.90;;;19.92;62.15;102283.91;4870648;28;98666;-73
2023/09/04 01:28:14;;;;;;;2.17;1.97;;;19.40;99.90;;;19.87;62.53;102281.47;4864604;28;101775;-74
2023/09/04 01:30:58;;;;;;;2.83;1.93;;;19.40;99.90;;;19.76;62.02;102278.44;4866512;28;101646;-75
2023/09/04 01:33:30;;;;;;;1.97;1.70;;;19.20;99.90;;;19.72;64.68;102270.63;4872793;28;97612;-74
2023/09/04 01:36:04;;;;;;;1.90;1.70;;;19.10;99.90;;;19.78;66.83;102268.50;4873137;28;97077;-74
2023/09/04 01:38:32;;;;;;;3.03;2.17;;;19.20;99.90;;;19.69;64.95;102260.94;4876360;28;98168;-74
2023/09/04 01:40:59;;;;;;;2.17;1.57;;;19.10;99.90;;;19.72;67.86;102267.97;4863758;28;97647;-73
2023/09/04 01:43:24;;;;;;;2.80;2.10;;;19.10;99.90;;;19.74;64.91;102269.59;4863501;28;106893;-73
2023/09/04 01:45:50;;;;;;;2.00;1.90;;;19.20;99.90;;;19.74;65.85;102279.44;4866624;28;115922;-73
2023/09/04 01:48:16;;;;;;;2.60;2.10;;;19.20;99.90;;;19.70;64.67;102270.72;4881238;28;106340;-73
2023/09/04 01:50:42;;;;;;;2.47;2.13;;;19.10;99.90;;;19.71;65.37;102277.78;4873542;28;97737;-74
2023/09/04 01:53:07;;;;;;;5.57;1.70;;;19.10;99.90;;;19.74;65.97;102280.31;4876637;28;112586;-73
2023/09/04 01:55:33;;;;;;;2.37;1.60;;;19.20;99.90;;;19.70;65.27;102283.22;4880752;28;97555;-73
2023/09/04 01:57:59;;;;;;;1.87;1.40;;;19.10;99.90;;;19.77;68.20;102280.16;4890390;28;97489;-74
2023/09/04 02:00:25;;;;;;;1.83;1.40;;;19.20;99.90;;;19.86;68.22;102273.50;4866547;28;98594;-73
2023/09/04 02:02:51;;;;;;;2.97;1.87;;;19.40;99.90;;;19.91;66.89;102283.03;4850857;28;97835;-73
2023/09/04 02:05:17;;;;;;;2.57;2.00;;;19.50;99.90;;;19.82;62.85;102279.97;4880457;28;97383;-74
2023/09/04 02:07:43;;;;;;;2.53;1.73;;;19.40;99.90;;;19.77;64.49;102274.81;4878051;28;110541;-74
2023/09/04 02:10:09;;;;;;;2.33;1.70;;;19.20;99.90;;;19.75;66.98;102276.69;4872334;28;100573;-73
2023/09/04 02:12:35;;;;;;;2.53;1.73;;;19.20;99.90;;;19.83;66.85;102279.88;4896239;28;97958;-74
2023/09/04 02:15:00;;;;;;;2.57;1.90;;;19.30;99.90;;;19.85;66.94;102278.00;4869430;28;97704;-73
2023/09/04 02:17:26;;;;;;;2.77;1.90;;;19.30;99.90;;;19.82;63.90;102282.63;4864374;28;105625;-73
2023/09/04 02:19:52;;;;;;;3.17;2.60;;;19.30;99.90;;;19.74;61.22;102290.16;4872620;28;97397;-74
2023/09/04 02:22:18;;;;;;;3.10;2.43;;;19.20;99.90;;;19.57;61.10;102280.28;4871273;28;98578;-73
2023/09/04 02:24:46;;;;;;;2.53;1.97;;;19.00;99.90;;;19.50;63.64;102284.13;4863199;28;97965;-73
2023/09/04 02:27:11;;;;;;;4.50;2.80;;;18.80;99.90;;;19.38;63.65;102282.03;4856360;28;106071;-73
2023/09/04 02:29:37;;;;;;;2.47;1.90;;;18.70;99.90;;;19.43;69.07;102267.50;4870425;28;97807;-73
2023/09/04 02:32:03;;;;;;;2.10;1.90;;;18.80;99.90;;;19.53;68.98;102267.94;4867957;28;97629;-74
2023/09/04 02:34:29;;;;;;;2.03;1.77;;;18.90;99.90;;;19.58;68.64;102263.25;4872250;28;97927;-74
2023/09/04 02:36:55;;;;;;;2.63;2.37;;;19.00;99.90;;;19.60;66.20;102261.38;4866324;28;111830;-73
2023/09/04 02:39:20;;;;;;;3.63;2.10;;;19.00;99.90;;;19.54;63.40;102258.97;4866873;28;98059;-73
2023/09/04 02:41:46;;;;;;;3.77;2.43;;;18.90;99.90;;;19.46;63.76;102256.66;4867104;28;112365;-73
2023/09/04 02:44:12;;;;;;;2.47;1.90;;;18.80;99.90;;;19.39;65.55;102259.72;4880324;28;97488;-73
2023/09/04 02:46:38;;;;;;;3.40;2.27;;;18.70;99.90;;;19.38;65.85;102255.25;4884140;28;112519;-73
2023/09/04 02:49:03;;;;;;;3.23;2.40;;;18.70;99.90;;;19.36;64.67;102265.19;4876282;28;97352;-73
2023/09/04 02:51:29;;;;;;;5.40;2.20;;;18.70;99.90;;;19.32;65.32;102268.00;4875799;28;106954;-75
2023/09/04 02:53:55;;;;;;;3.07;2.40;;;18.70;99.90;;;19.36;67.09;102268.72;4876252;28;98099;-73
2023/09/04 02:56:20;;;;;;;3.00;2.23;;;18.70;99.90;;;19.35;65.93;102266.13;4874481;28;114755;-74
2023/09/04 02:58:47;;;;;;;2.97;2.30;;;18.70;99.90;;;19.37;66.03;102264.22;4868641;28;108082;-74
2023/09/04 03:01:18;;;;;;;2.83;2.17;;;18.70;99.90;;;19.42;68.07;102256.88;4882552;28;106458;-73
2023/09/04 03:03:44;;;;;;;3.63;2.40;;;18.80;99.90;;;19.42;64.38;102257.75;4877654;28;97463;-73
2023/09/04 03:06:11;;;;;;;4.60;2.27;;;18.80;99.90;;;19.40;65.84;102256.97;4879611;28;105589;-73
2023/09/04 03:08:38;;;;;;;2.27;1.60;;;18.80;99.90;;;19.44;68.20;102263.03;4873172;28;110346;-74
2023/09/04 03:11:13;;;;;;;2.23;1.67;;;18.80;99.90;;;19.52;68.53;102263.50;4878195;28;97571;-73
2023/09/04 03:13:40;;;;;;;2.80;2.10;;;19.00;99.90;;;19.49;63.75;102269.00;4873939;28;97542;-73
2023/09/04 03:16:06;;;;;;;1.60;1.50;;;18.90;99.90;;;19.47;67.90;102270.91;4875001;28;96959;-73
2023/09/04 03:18:33;;;;;;;1.77;1.53;;;18.80;99.90;;;19.54;68.10;102273.25;4889736;28;97802;-74
2023/09/04 03:21:01;;;;;;;2.93;1.80;;;19.00;99.90;;;19.53;64.58;102275.97;4880778;28;97413;-73
2023/09/04 03:23:27;;;;;;;3.60;2.10;;;19.00;99.90;;;19.47;62.66;102277.13;4886188;28;97726;-73
2023/09/04 03:25:53;;;;;;;3.20;2.20;;;18.90;99.90;;;19.47;66.27;102276.25;4877521;28;106858;-73
2023/09/04 03:28:20;;;;;;;3.17;2.60;;;18.80;99.90;;;19.46;65.29;102277.19;4883561;28;126798;-74
2023/09/04 03:30:46;;;;;;;2.50;1.90;;;18.80;99.90;;;19.38;61.99;102271.31;4877436;28;97449;-75
2023/09/04 03:33:11;;;;;;;3.37;2.17;;;18.80;99.90;;;19.39;64.67;102273.09;4877148;28;97491;-73
2023/09/04 03:35:37;;;;;;;4.20;2.37;;;18.70;99.90;;;19.34;66.04;102275.97;4869724;28;97333;-73
2023/09/04 03:38:04;;;;;;;1.57;1.30;;;18.70;99.90;;;19.37;69.34;102274.94;4870868;28;99458;-73
2023/09/04 03:40:30;;;;;;;2.13;1.80;;;18.70;99.90;;;19.38;66.10;102271.31;4878898;28;97168;-73
2023/09/04 03:42:56;;;;;;;3.00;2.00;;;18.70;99.90;;;19.35;62.85;102269.66;4881210;28;98273;-73
2023/09/04 03:45:22;;;;;;;2.93;1.73;;;18.70;99.90;;;19.31;65.28;102271.63;4874477;28;113057;-74
2023/09/04 03:47:48;;;;;;;2.30;1.60;;;18.60;99.90;;;19.35;68.68;102260.78;4888260;28;97550;-74
2023/09/04 03:50:15;;;;;;;1.73;1.53;;;18.70;99.90;;;19.41;67.07;102261.38;4878537;28;98404;-73
2023/09/04 03:52:42;;;;;;;1.83;1.30;;;18.80;99.90;;;19.44;68.90;102260.34;4893113;28;97623;-73
2023/09/04 03:55:12;;;;;;;2.83;1.93;;;18.80;99.90;;;19.46;67.94;102253.09;4870946;28;97785;-73
2023/09/04 03:57:39;;;;;;;1.97;1.40;;;18.80;99.90;;;19.48;67.30;102251.22;4895889;28;97295;-73
2023/09/04 04:00:14;;;;;;;1.67;1.40;;;18.90;99.90;;;19.51;68.57;102251.06;4867485;28;97652;-73
2023/09/04 04:02:41;;;;;;;3.03;1.73;;;18.90;99.90;;;19.52;66.52;102242.97;4888116;28;97927;-73
2023/09/04 04:05:08;;;;;;;3.33;1.63;;;19.00;99.90;;;19.56;66.00;102249.97;4876851;28;97388;-73
2023/09/04 04:07:34;;;;;;;1.80;1.50;;;19.00;99.90;;;19.63;67.92;102250.50;4878406;28;97097;-73
2023/09/04 04:10:01;;;;;;;2.57;1.83;;;19.10;99.90;;;19.66;67.29;102239.66;4885780;28;97303;-74
2023/09/04 04:12:27;;;;;;;2.57;2.00;;;19.20;99.90;;;19.65;64.36;102247.75;4883369;28;97132;-73
2023/09/04 04:14:57;;;;;;;3.17;1.97;;;19.10;99.90;;;19.69;65.32;102244.03;4875596;28;105742;-73
2023/09/04 04:17:26;;;;;;;2.10;1.60;;;19.20;99.90;;;19.68;66.31;102243.16;4882675;28;97576;-74
2023/09/04 04:19:53;;;;;;;2.97;1.97;;;19.10;99.90;;;19.61;61.94;102244.38;4873687;28;106475;-73
2023/09/04 04:22:25;;;;;;;2.53;1.80;;;19.00;99.90;;;19.54;65.14;102245.59;4880027;28;97728;-73
2023/09/04 04:24:51;;;;;;;3.20;2.00;;;18.90;99.90;;;19.46;62.74;102253.97;4885838;28;99772;-73
2023/09/04 04:27:17;;;;;;;2.33;1.63;;;18.80;99.90;;;19.36;64.17;102249.13;4884879;28;111218;-74
2023/09/04 04:29:49;;;;;;;4.70;1.90;;;18.70;99.90;;;19.28;64.06;102253.03;4880264;28;96780;-73
2023/09/04 04:32:15;;;;;;;4.20;1.97;;;18.50;99.90;;;19.25;66.05;102253.19;4866963;28;98339;-73
2023/09/04 04:34:42;;;;;;;3.93;2.30;;;18.50;99.90;;;19.28;66.88;102258.41;4883470;28;110340;-73
2023/09/04 04:37:08;;;;;;;2.50;1.60;;;18.60;99.90;;;19.31;68.50;102257.38;4883510;28;98378;-73
2023/09/04 04:39:34;;;;;;;2.00;1.70;;;18.60;99.90;;;19.37;67.23;102258.88;4865281;28;97718;-73
2023/09/04 04:42:00;;;;;;;1.93;1.50;;;18.70;99.90;;;19.43;69.50;102258.63;4880483;28;106172;-73
2023/09/04 04:44:26;;;;;;;2.47;1.90;;;18.90;99.90;;;19.47;67.33;102262.88;4880013;28;97460;-73
2023/09/04 04:46:52;;;;;;;2.33;1.70;;;18.90;99.90;;;19.48;66.96;102257.44;4873329;28;97814;-73
2023/09/04 04:49:23;;;;;;;2.13;1.40;;;18.90;99.90;;;19.45;67.15;102256.72;4869876;28;98265;-73
2023/09/04 04:51:54;;;;;;;2.40;1.50;;;18.90;99.90;;;19.44;66.91;102260.34;4891775;28;97580;-73
2023/09/04 04:54:20;;;;;;;3.07;1.77;;;18.80;99.90;;;19.43;64.24;102269.31;4873438;28;98135;-73
2023/09/04 04:56:48;;;;;;;2.00;1.43;;;18.80;99.90;;;19.44;67.72;102271.06;4878785;28;98666;-74
2023/09/04 04:59:15;;;;;;;2.07;1.60;;;18.80;99.90;;;19.32;66.92;102284.06;4874493;28;97207;-74
2023/09/04 05:01:41;;;;;;;4.57;2.27;;;18.70;99.90;;;19.35;63.99;102284.84;4871206;28;97450;-73
2023/09/04 05:04:07;;;;;;;2.67;1.80;;;18.70;99.90;;;19.32;67.49;102278.72;4860544;28;99624;-73
2023/09/04 05:06:33;;;;;;;2.33;1.40;;;18.70;99.90;;;19.40;68.51;102281.03;4875858;28;97432;-73
2023/09/04 05:08:59;;;;;;;1.77;1.67;;;18.80;99.90;;;19.41;68.10;102281.91;4874291;28;97388;-74
2023/09/04 05:11:25;;;;;;;1.80;1.60;;;18.80;99.90;;;19.49;68.81;102282.41;4876993;28;97508;-73
2023/09/04 05:13:51;;;;;;;2.33;1.20;;;18.90;99.90;;;19.53;68.76;102281.34;4877741;28;109236;-73
2023/09/04 05:16:16;;;;;;;2.10;1.90;;;19.00;99.90;;;19.52;65.37;102284.91;4879760;28;96964;-74
2023/09/04 05:18:42;;;;;;;1.60;1.40;;;19.00;99.90;;;19.58;67.39;102285.53;4880920;28;97342;-73
2023/09/04 05:21:08;;;;;;;1.60;1.30;;;19.10;99.90;;;19.64;67.95;102284.38;4876794;28;97588;-73
2023/09/04 05:23:34;;;;;;;1.33;1.23;;;19.20;99.90;;;19.66;67.73;102282.47;4878518;28;98676;-73
2023/09/04 05:26:00;;;;;;;1.63;1.33;;;19.20;99.90;;;19.71;68.01;102296.53;4864836;28;100264;-73
2023/09/04 05:28:26;;;;;;;1.37;1.10;;;19.20;99.90;;;19.78;67.87;102295.28;4875963;28;98249;-73
2023/09/04 05:30:52;;;;;;;2.13;1.43;;;19.40;99.90;;;19.86;67.86;102298.47;4886782;28;97591;-73
2023/09/04 05:33:18;;;;;;;2.63;1.50;;;19.50;99.90;;;19.93;67.53;102293.66;4875475;28;115291;-74
2023/09/04 05:35:44;;;;;;;1.90;1.40;;;19.60;99.90;;;20.00;67.02;102302.28;4889200;28;97365;-73
2023/09/04 05:38:09;;;;;;;1.50;1.20;;;19.70;99.90;;;20.03;66.83;102296.78;4883084;28;97439;-73
2023/09/04 05:40:35;;;;;;;1.90;1.70;;;19.70;99.90;;;20.04;65.38;102301.19;4867743;28;97086;-73
2023/09/04 05:43:01;;;;;;;1.50;1.20;;;19.70;99.90;;;20.09;66.85;102297.31;4875407;28;106190;-73
2023/09/04 05:45:27;;;;;;;1.73;1.20;;;19.80;99.90;;;20.19;66.86;102292.38;4873012;28;101995;-73
2023/09/04 05:47:53;;;;;;;1.60;1.40;;;19.90;99.90;;;20.26;66.29;102285.78;4876231;28;97817;-74
2023/09/04 05:50:19;;;;;;;1.73;1.63;;;20.10;99.90;;;20.31;65.93;102281.06;4856595;28;97867;-74
2023/09/04 05:52:44;;;;;;;2.37;1.50;;;20.10;99.90;;;20.37;65.82;102285.22;4867978;28;97270;-73
2023/09/04 05:55:10;;;;;;;2.13;1.50;;;20.20;99.90;;;20.40;65.68;102280.59;4869067;28;97089;-74
2023/09/04 05:57:36;;;;;;;1.80;1.63;;;20.30;99.90;;;20.45;64.04;102272.34;4868659;28;99740;-75
2023/09/04 06:00:07;;;;;;;1.67;1.33;;;20.30;99.90;;;20.49;65.54;102269.41;4871545;28;107357;-75
2023/09/04 06:02:32;;;;;;;2.80;1.20;;;20.40;99.90;;;20.55;65.22;102268.25;4882242;28;98889;-75
2023/09/04 06:04:58;;;;;;;2.30;1.40;;;20.50;99.90;;;20.57;64.76;102268.16;4870827;28;97561;-74
2023/09/04 06:07:24;;;;;;;2.10;1.30;;;20.50;99.90;;;20.55;63.81;102272.75;4881442;28;97347;-74
2023/09/04 06:09:50;;;;;;;2.10;1.57;;;20.40;99.90;;;20.54;64.85;102265.59;4879621;28;96994;-74
2023/09/04 06:12:15;;;;;;;2.33;1.70;;;20.30;99.90;;;20.55;65.02;102267.38;4866519;28;112386;-74
2023/09/04 06:14:41;;;;;;;1.57;1.33;;;20.40;99.90;;;20.57;65.03;102265.47;4875001;28;108332;-74
2023/09/04 06:17:07;;;;;;;1.80;1.50;;;20.40;99.90;;;20.61;65.05;102267.03;4858632;28;97021;-74
2023/09/04 06:19:33;;;;;;;1.70;1.30;;;20.50;99.90;;;20.62;64.80;102261.59;4864473;28;97655;-74
2023/09/04 06:21:58;;;;;;;4.23;2.33;;;20.50;99.90;;;20.64;61.32;102256.16;4860953;28;106385;-74
2023/09/04 06:24:24;;;;;;;2.13;1.90;;;20.50;99.90;;;20.58;60.12;102267.22;4859455;28;122201;-75
2023/09/04 06:26:51;;;;;;;2.57;1.30;;;20.50;99.90;;;20.60;64.90;102268.00;4853185;28;97480;-75
2023/09/04 06:29:18;;;;;;;1.90;1.50;;;20.50;99.90;;;20.64;64.58;102266.88;4878343;28;97385;-75
2023/09/04 06:31:44;;;;;;;1.77;1.47;;;20.50;99.90;;;20.65;64.51;102257.88;4862611;28;97393;-75
2023/09/04 06:34:11;;;;;;;1.33;1.10;;;20.50;99.90;;;20.69;64.46;102263.03;4862520;28;97397;-75
2023/09/04 06:36:37;;;;;;;1.60;1.37;;;20.60;99.90;;;20.71;64.45;102262.94;4854845;28;97799;-75
2023/09/04 06:39:04;;;;;;;1.53;1.20;;;20.60;99.90;;;20.74;64.29;102263.63;4867757;28;97518;-75
2023/09/04 06:41:32;;;;;;;1.97;1.53;;;20.70;99.90;;;20.77;64.22;102255.41;4855598;28;99004;-75
2023/09/04 06:43:58;;;;;;;2.07;1.63;;;20.70;99.90;;;20.77;64.13;102255.41;4869467;28;103377;-75
2023/09/04 06:46:24;;;;;;;1.50;1.17;;;20.80;99.90;;;20.79;64.10;102253.53;4843600;28;97235;-75
2023/09/04 06:48:50;;;;;;;1.40;1.30;;;20.80;99.90;;;20.81;63.92;102258.78;4860011;28;97577;-75
2023/09/04 06:51:16;;;;;;;2.43;1.87;;;20.80;99.90;;;20.83;63.73;102259.59;4864409;28;97299;-75
2023/09/04 06:53:43;;;;;;;2.00;1.20;;;20.90;99.90;;;20.80;63.82;102251.69;4862493;28;97380;-75
2023/09/04 06:56:09;;;;;;;1.67;1.43;;;20.90;99.90;;;20.78;64.08;102253.59;4874125;28;97272;-75
2023/09/04 06:58:35;;;;;;;1.73;1.57;;;20.90;99.90;;;20.80;63.78;102246.34;4876948;28;97471;-75
2023/09/04 07:01:03;;;;;;;2.00;1.40;;;20.90;99.90;;;20.79;63.46;102244.59;4876603;28;97711;-75
2023/09/04 07:03:29;;;;;;;1.83;1.57;;;20.90;99.90;;;20.80;63.73;102246.34;4875323;28;102617;-75
2023/09/04 07:05:55;;;;;;;1.83;1.60;;;20.90;99.90;;;20.84;63.62;102247.06;4873259;28;97073;-75
2023/09/04 07:08:21;;;;;;;2.07;1.20;;;20.90;99.90;;;20.85;63.31;102238.94;4867476;28;97568;-75
2023/09/04 07:10:48;;;;;;;1.30;1.17;;;20.90;99.90;;;20.86;63.36;102246.03;4881287;28;99511;-75
2023/09/04 07:13:14;;;;;;;2.00;1.47;;;21.00;99.90;;;20.88;63.31;102236.09;4884410;28;101544;-75
2023/09/04 07:15:40;;;;;;;1.53;1.40;;;21.00;99.90;;;20.89;63.09;102235.13;4879984;28;97298;-75
2023/09/04 07:18:08;;;;;;;1.63;1.30;;;21.00;99.90;;;20.92;63.08;102239.44;4872589;28;97692;-75
2023/09/04 07:20:33;;;;;;;1.77;1.43;;;21.00;99.90;;;20.92;63.14;102234.97;4865852;28;99296;-75
2023/09/04 07:22:59;;;;;;;1.40;1.30;;;21.00;99.90;;;20.96;62.97;102238.31;4873159;28;97386;-75
2023/09/04 07:25:25;;;;;;;1.73;1.20;;;21.00;99.90;;;20.91;62.96;102232.34;4877879;28;108531;-75
2023/09/04 07:27:51;;;;;;;1.30;1.20;;;21.00;99.90;;;20.92;63.15;102234.09;4877232;28;97177;-75
2023/09/04 07:30:17;;;;;;;3.30;1.23;;;21.00;99.90;;;20.94;62.62;102242.91;4874704;28;97067;-75
2023/09/04 07:32:43;;;;;;;1.97;1.27;;;21.00;99.90;;;20.93;62.82;102238.50;4879717;28;110558;-75
2023/09/04 07:35:10;;;;;;;2.60;1.30;;;21.00;99.90;;;20.92;62.84;102239.44;4868615;28;97112;-75
2023/09/04 07:37:36;;;;;;;1.67;1.20;;;21.00;99.90;;;20.86;62.99;102235.31;4877926;28;96900;-75
2023/09/04 07:40:05;;;;;;;1.40;1.20;;;21.00;99.90;;;20.87;63.16;102242.41;4876768;28;97622;-75
2023/09/04 07:42:31;;;;;;;2.03;1.57;;;21.00;99.90;;;20.85;62.96;102244.31;4849646;28;103561;-74
2023/09/04 07:44:57;;;;;;;1.20;1.10;;;21.00;99.90;;;20.81;63.06;102237.34;4872278;28;100376;-75
2023/09/04 07:47:24;;;;;;;1.97;1.20;;;21.00;99.90;;;20.79;62.99;102245.47;4879336;28;97694;-75
2023/09/04 07:49:51;;;;;;;1.47;1.20;;;21.00;99.90;;;20.79;63.23;102240.13;4875172;28;97992;-75
2023/09/04 07:52:16;;;;;;;1.33;1.03;;;20.90;99.90;;;20.82;63.14;102244.44;4876599;28;99188;-75
2023/09/04 07:54:42;;;;;;;1.47;1.30;;;20.90;99.90;;;20.78;62.93;102242.88;4877446;28;117263;-75
2023/09/04 07:57:08;;;;;;;1.40;1.20;;;20.90;99.90;;;20.73;63.22;102242.28;4873589;28;97592;-75
2023/09/04 07:59:34;;;;;;;2.27;1.50;;;20.90;99.90;;;20.79;62.98;102247.28;4896762;28;100022;-75
2023/09/04 08:02:00;;;;;;;2.33;1.30;;;20.90;99.90;;;20.73;63.16;102239.59;4887774;28;98242;-75
2023/09/04 08:04:26;;;;;;;2.00;1.53;;;20.90;99.90;;;20.76;63.05;102242.09;4874623;28;97066;-75
2023/09/04 08:06:52;;;;;;;1.07;0.83;;;20.90;99.90;;;20.88;62.67;102238.75;4875115;28;97813;-75
2023/09/04 08:09:18;;;;;;;2.77;1.17;;;21.00;99.90;;;20.96;59.79;102231.16;4880590;28;97893;-76
2023/09/04 08:11:44;;;;;;;1.30;1.10;;;21.00;99.90;;;20.95;62.28;102237.47;4873138;28;113002;-75
2023/09/04 08:14:09;;;;;;;2.07;1.37;;;21.00;99.90;;;20.95;62.44;102236.59;4880165;28;97226;-75
2023/09/04 08:16:35;;;;;;;1.47;1.20;;;21.00;99.90;;;20.84;62.78;102234.53;4876023;28;97185;-75
2023/09/04 08:19:01;;;;;;;3.07;1.30;;;21.00;99.90;;;20.82;62.85;102233.72;4870831;28;99933;-75
2023/09/04 08:21:27;;;;;;;2.80;1.30;;;21.00;99.90;;;20.84;62.72;102234.53;4872925;28;97244;-74
2023/09/04 08:23:53;;;;;;;1.80;1.30;;;21.00;99.90;;;20.89;62.65;102234.25;4860836;28;97390;-75
2023/09/04 08:26:18;;;;;;;1.83;1.37;;;21.00;99.90;;;20.91;62.62;102233.22;4885706;28;100817;-75
2023/09/04 08:28:44;;;;;;;1.40;0.93;;;21.00;99.90;;;20.87;62.57;102231.66;4864497;28;103165;-75
2023/09/04 08:31:11;;;;;;;1.80;1.20;;;21.00;99.90;;;20.93;61.75;102231.31;4880608;28;107837;-75
2023/09/04 08:33:37;;;;;;;1.90;1.03;;;21.00;99.90;;;20.99;62.23;102239.06;4875765;28;97732;-75
2023/09/04 08:36:03;;;;;;;1.87;1.30;;;21.10;99.90;;;21.01;62.24;102242.50;4871938;28;98044;-77
2023/09/04 08:38:28;;;;;;;1.93;1.20;;;21.10;99.90;;;21.03;62.10;102240.63;4880762;28;98880;-75
2023/09/04 08:41:05;;;;;;;1.60;1.10;;;21.10;99.90;;;21.00;62.26;102235.41;4867260;28;99868;-74
2023/09/04 08:43:32;;;;;;;1.30;1.10;;;21.10;99.90;;;20.91;62.46;102241.28;4891351;28;97770;-75
2023/09/04 08:46:02;;;;;;;3.10;1.63;;;21.10;99.90;;;21.03;58.89;102226.34;4863533;28;99521;-75
2023/09/04 08:48:30;;;;;;;1.80;1.40;;;21.10;99.90;;;21.10;59.26;102233.06;4863450;28;104086;-75
2023/09/04 08:50:56;;;;;;;1.57;1.40;;;21.10;99.90;;;21.04;56.88;102228.94;4883165;28;98146;-74
2023/09/04 08:53:22;;;;;;;1.53;0.97;;;21.10;99.90;;;21.09;60.51;102232.22;4877716;28;97696;-75
2023/09/04 08:55:50;;;;;;;2.00;1.43;;;21.10;99.90;;;21.09;56.70;102231.34;4880181;28;97298;-75
2023/09/04 08:58:16;;;;;;;1.73;1.33;;;21.10;99.90;;;21.13;60.18;102232.06;4878358;28;100646;-75
2023/09/04 09:00:44;;;;;;;1.43;0.90;;;21.10;99.90;;;21.07;61.48;102228.75;4868207;28;98597;-75
2023/09/04 09:03:11;;;;;;;2.10;1.43;;;21.10;99.90;;;21.14;57.87;102228.44;4887313;28;97299;-75
2023/09/04 09:05:37;;;;;;;1.60;1.13;;;21.20;99.90;;;21.15;61.34;102227.47;4877811;28;97586;-75
2023/09/04 09:08:05;;;;;;;1.93;1.30;;;21.20;99.90;;;21.19;57.27;102229.03;4876186;28;116535;-75
2023/09/04 09:10:31;;;;;;;1.73;1.27;;;21.20;99.90;;;21.09;60.02;102221.47;4894326;28;97736;-75
2023/09/04 09:12:57;;;;;;;1.60;1.10;;;21.20;99.90;;;21.07;61.62;102234.13;4883818;28;96859;-75
2023/09/04 09:15:23;;;;;;;1.70;1.50;;;21.20;99.90;;;21.15;58.78;102235.53;4879819;28;97341;-75
2023/09/04 09:17:55;;;;;;;1.47;1.27;;;21.20;99.90;;;21.12;59.14;102230.31;4879557;28;98330;-75
2023/09/04 09:20:38;;;;;;;1.57;1.30;;;21.20;99.90;;;21.20;56.44;102230.75;4876285;28;99600;-74
2023/09/04 09:23:05;;;;;;;1.40;1.20;;;21.20;99.90;;;21.02;60.92;102225.47;4872751;28;97513;-75
2023/09/04 09:25:32;;;;;;;1.27;1.00;;;21.20;99.90;;;21.04;61.30;102228.94;4881803;28;97728;-75
2023/09/04 09:28:05;;;;;;;1.83;1.40;;;21.20;99.90;;;21.08;61.29;102219.75;4877136;28;100496;-75
2023/09/04 09:30:38;;;;;;;0.80;0.80;;;21.20;99.90;;;20.98;62.04;102213.19;4877527;28;101542;-75
2023/09/04 09:33:15;;;;;;;1.80;1.23;;;21.20;99.90;;;20.92;62.22;102207.28;4867981;28;97302;-75
2023/09/04 09:35:41;;;;;;;1.10;1.00;;;21.10;99.90;;;20.97;62.04;102200.69;4862363;28;97349;-75
2023/09/04 09:38:08;;;;;;;3.93;1.63;;;21.10;99.90;;;21.11;60.29;102202.63;4885408;28;97044;-74
2023/09/04 09:40:34;;;;;;;2.40;1.83;;;21.20;99.90;;;21.22;60.62;102210.06;4875171;28;97634;-75
2023/09/04 09:43:00;;;;;;;2.13;1.53;;;21.30;99.90;;;21.03;61.58;102200.38;4882248;28;98667;-75
2023/09/04 09:45:34;;;;;;;1.30;1.20;;;21.20;99.90;;;20.90;62.29;102204.66;4868743;28;103737;-75
2023/09/04 09:48:12;;;;;;;1.53;1.17;;;21.10;99.90;;;20.99;62.09;102201.50;4873225;28;101726;-75
2023/09/04 09:50:40;;;;;;;1.90;1.43;;;21.10;99.90;;;21.04;62.04;102207.47;4875309;28;101688;-75
2023/09/04 09:53:06;;;;;;;1.43;1.23;;;21.20;99.90;;;21.08;61.91;102195.59;4893482;28;97491;-75
2023/09/04 09:55:33;;;;;;;2.20;1.60;;;21.20;99.90;;;21.18;61.38;102192.41;4883838;28;97307;-75
2023/09/04 09:58:01;;;;;;;2.80;1.60;;;21.30;99.90;;;21.23;60.96;102187.66;4878782;28;101666;-75
2023/09/04 10:00:28;;;;;;;2.10;1.30;;;21.40;99.90;;;21.18;61.22;102187.06;4871947;28;97179;-75
2023/09/04 10:02:54;;;;;;;1.37;1.17;;;21.30;99.90;;;21.21;61.34;102181.50;4879989;28;97979;-75
2023/09/04 10:05:24;;;;;;;1.33;1.20;;;21.30;99.90;;;21.08;61.91;102182.19;4880338;28;97150;-75
2023/09/04 10:08:02;;;;;;;1.30;1.20;;;21.30;99.90;;;21.16;61.57;102172.84;4871521;28;101156;-75
2023/09/04 10:10:39;;;;;;;2.83;1.70;;;21.30;99.90;;;21.20;61.79;102163.69;4879292;28;99626;-75